ADDS METAR Data INFO
IDs: Format: Raw Decoded Include TAF

Data at: 2202 UTC 24 Feb 2018

KHUM 242150Z 18015G21KT 7SM BKN025 26/21 A2999
KHUM 242047Z 18015G21KT 7SM BKN022 27/21 A3000
KHUM 241950Z 18013G21KT 7SM BKN022 27/21 A3002
KHUM 241847Z 17015G22KT 7SM BKN022 27/21 A3004
KHUM 241755Z 17015G22KT 7SM BKN020 27/21 A3006
KHUM 241655Z 16015G24KT 7SM BKN020 26/21 A3008
KHUM 241547Z 17012G18KT 7SM BKN018 26/22 A3010
KHUM 241450Z 16012KT 7SM BKN016 25/22 A3010
KHUM 241350Z 16010KT 7SM BKN014 24/22 A3009
KHUM 241247Z 16008KT 7SM SCT020 22/21 A3009
KHUM 241147Z 16008KT 7SM SCT014 BKN020 22/21 A3009
KHUM 241135Z AUTO 16007KT 7SM BKN014 23/21 A3008 RMK AO2 T02260211
KHUM 241115Z AUTO 15007KT 7SM BKN016 OVC024 23/21 A3008 RMK AO2 T02270210
KHUM 241055Z AUTO 17007KT 7SM BKN018 BKN024 OVC080 23/21 A3008 RMK AO2 T02290211
KHUM 241035Z AUTO 17008KT 7SM BKN018 BKN028 OVC080 23/21 A3008 RMK AO2 T02280210
KHUM 241015Z AUTO 17005KT 7SM SCT015 BKN021 OVC080 23/21 A3008 RMK AO2 T02270211
KHUM 240955Z AUTO 16006KT 10SM SCT015 BKN025 OVC080 23/21 A3009 RMK AO2 T02250210
KHUM 240935Z AUTO 16007KT 10SM SCT015 BKN027 OVC034 23/21 A3009 RMK AO2 T02280207
KHUM 240915Z AUTO 16005KT 7SM BKN015 23/21 A3009 RMK AO2 T02260212
KHUM 240855Z AUTO 15006KT 7SM BKN017 BKN023 BKN037 23/21 A3009 RMK AO2 T02250208
KHUM 240835Z AUTO 15008KT 7SM BKN015 OVC021 23/21 A3010 RMK AO2 T02260211
KHUM 240815Z AUTO 15006KT 7SM SCT012 BKN018 OVC024 23/22 A3011 RMK AO2 T02280215
KHUM 240755Z AUTO 15005KT 7SM SCT012 BKN018 BKN024 23/22 A3011 RMK AO2 T02270217
KHUM 240735Z AUTO 16006KT 7SM SCT012 BKN017 BKN027 23/22 A3012 RMK AO2 T02280218
KHUM 240715Z AUTO 15006KT 7SM SCT010 SCT013 BKN023 23/22 A3012 RMK AO2 T02300219
KHUM 240655Z AUTO 14007KT 7SM SCT016 SCT020 BKN034 23/22 A3013 RMK AO2 T02330219
KHUM 240635Z AUTO 16009KT 7SM SCT013 SCT021 SCT037 23/22 A3013 RMK AO2 T02300218
KHUM 240615Z AUTO 16009KT 7SM SCT013 BKN023 BKN030 23/22 A3013 RMK AO2 T02320220
KHUM 240555Z AUTO 17007KT 7SM BKN013 BKN019 BKN023 23/22 A3014 RMK AO2 T02310219 10240 20216 402710201
KHUM 240535Z AUTO 17006KT 7SM BKN013 BKN022 OVC060 23/22 A3014 RMK AO2 T02320220
KHUM 240515Z AUTO 17008KT 7SM SCT013 BKN021 BKN043 23/22 A3015 RMK AO2 T02310219
KHUM 240455Z AUTO 17006KT 7SM SCT011 SCT024 23/22 A3015 RMK AO2 T02300218
KHUM 240435Z AUTO 17005KT 7SM SCT011 23/22 A3015 RMK AO2 T02260218
KHUM 240415Z AUTO 17005KT 7SM SCT013 SCT022 BKN060 23/22 A3015 RMK AO2 T02290219
KHUM 240355Z AUTO 18005KT 7SM SCT011 BKN017 OVC026 23/22 A3016 RMK AO2 T02260218
KHUM 240335Z AUTO 19003KT 7SM BKN011 BKN016 OVC025 23/22 A3016 RMK AO2 T02270218
KHUM 240315Z AUTO 18003KT 7SM SCT015 22/22 A3017 RMK AO2 T02220215
KHUM 240255Z AUTO 18004KT 7SM CLR 22/21 A3017 RMK AO2 T02220213
KHUM 240235Z AUTO 18003KT 7SM CLR 22/21 A3017 RMK AO2 T02220212
KHUM 240215Z AUTO 18004KT 7SM CLR 22/21 A3017 RMK AO2 T02160208
KHUM 240155Z AUTO 17003KT 7SM CLR 22/21 A3017 RMK AO2 T02200207
KHUM 240135Z AUTO 18003KT 7SM CLR 23/21 A3017 RMK AO2 T02250210
KHUM 240115Z AUTO 20004KT 7SM CLR 23/21 A3016 RMK AO2 T02300210
KHUM 240047Z 20004KT 7SM SCT018 23/21 A3016 RMK LAST
KHUM 232347Z 17007KT 7SM SCT045 24/21 A3016
KHUM 232247Z 17008KT 7SM SCT025 25/21 A3015
KHUM 232150Z 16008KT 7SM SCT020 26/21 A3015
KHUM 232050Z 16008KT 7SM BKN020 25/21 A3017
KHUM 231955Z 16013KT 7SM BKN020 26/22 A3018
KHUM 231855Z 16013KT 7SM BKN020 27/22 A3020
KHUM 231755Z 15010KT 7SM SCT020 BKN040 27/23 A3024
KHUM 231655Z 15008KT 7SM SCT020 BKN040 25/22 A3026
KHUM 231555Z 15008KT 7SM SCT020 BKN040 24/22 A3027
KHUM 231450Z 13005KT 7SM SCT042 OVC065 22/21 A3026
KHUM 231355Z 18005KT 3SM RA SCT006 BKN015 21/21 A3026
KHUM 231307Z 20005KT 3SM RA SCT006 BKN015 21/21 A3025
KHUM 231247Z 14005KT 7SM BKN026 21/21 A3025
KHUM 231147Z 14007KT 7SM BKN060 22/21 A3024
KHUM 231135Z AUTO 12008KT 5SM BR SCT026 BKN060 OVC070 21/21 A3024 RMK AO2 T02130210
KHUM 231115Z AUTO 10004KT 7SM SCT023 BKN041 OVC055 21/21 A3024 RMK AO2 LTG DSNT NW T02130209
KHUM 231055Z AUTO 10003KT 7SM SCT025 BKN041 OVC100 21/21 A3024 RMK AO2 T02120206
KHUM 231035Z AUTO 10004KT 7SM SCT008 BKN050 OVC100 21/21 A3023 RMK AO2 T02130206
KHUM 231015Z AUTO 11006KT 5SM BR SCT010 BKN016 OVC050 22/21 A3024 RMK AO2 T02150211